Weather at Bell Helicopters Auxiliary Heliport

Public forecast

Using degrees Fahrenheit for public forecast. Weather courtesy of forecast.io.

Closest aviation weather report (METAR) to Bell Helicopters Auxiliary Heliport

Closest report is Grand Prairie Municipal Airport, 8.0 nm (14.8 km) SE.

2024/05/23 01:50 (retrieved 19 minutes ago)

KGPM 230150Z 35005KT 10SM SKC 22/22 A2980

Closest aviation forecast (TAF) to Bell Helicopters Auxiliary Heliport

Forecast is more than 6 hours old.

Closest forecast is NAS Fort Worth JRB / Carswell Field, 14.8 nm (27.4 km) W.

2024/05/22 19:03 Ammendment (retrieved 7 hours ago)

TAF AMD KNFW 2219/2315 16012G18KT 9000 HZ VCTS SCT035CB BKN050 BKN250 QNH2972INS WND 080V240 TEMPO 2221/2300 VRB30G50KT 2400 +TSRAGR BKN009CB OVC018 BECMG 2300/2302 10012KT 9000 +SHRA VCTS BKN012CB OVC024 QNH2974INS TEMPO 2304/2306 VRB20G26KT 1600 +TSRA BKN006CB OVC010 BECMG 2308/2310 17012KT 9000 BR BKN008 OVC022 QNH2972INS BECMG 2312/2314 21012G18KT 9999 NSW BKN020 OVC060 QNH2975INS TX30/2220Z TN23/2311Z AMD 1955 FN20046